Blanket, Texas
Current Conditions -  °F | °C
As of 6:55 PM on Saturday 25 Oct 2014 (Local Time) from KBWD Reporting Station
Clear Clear  
Wind Chill: 79°   Ceiling: Unl
Heat Index: 79°   Visibility: 10mi
Dew Point: 54°   Wind: 5mph
Humidity: 42%   Direction: 140°SE
Pressure: 30.07"   Gusts: NA
Location:  31.82°N, 98.79°W
Report Text: KBWD 252355Z AUTO 14004KT 10SM CLR 26/12 A3007 RMK AO2
Loading
Personal Weather Stations






























Interactive Weather Map New forecast layout! Learn more

10-Day Weather Forecast

Advertisements
Track Severe Weather on mobile